createdAt,value
2022-08-27T00:01:36.914Z,15.63
2022-08-27T00:04:19.598Z,15.05
2022-08-27T00:07:09.503Z,14.10
2022-08-27T00:09:58.588Z,14.18
2022-08-27T00:12:47.518Z,13.80
2022-08-27T00:15:36.591Z,14.30
2022-08-27T00:18:26.609Z,14.02
2022-08-27T00:21:16.495Z,14.27
2022-08-27T00:24:05.391Z,14.63
2022-08-27T00:26:49.600Z,13.82
2022-08-27T00:29:32.225Z,14.82
2022-08-27T00:32:21.576Z,15.77
2022-08-27T00:35:10.953Z,15.80
2022-08-27T00:37:53.498Z,14.35
2022-08-27T00:43:41.481Z,12.55
2022-08-27T00:46:48.091Z,13.77
2022-08-27T00:49:36.593Z,13.65
2022-08-27T00:52:28.863Z,13.75
2022-08-27T00:55:16.623Z,12.82
2022-08-27T00:58:16.979Z,13.05
2022-08-27T01:00:58.662Z,12.85
2022-08-27T01:03:43.006Z,12.95
2022-08-27T01:06:33.580Z,12.32
2022-08-27T01:09:25.584Z,12.85
2022-08-27T01:12:08.301Z,12.95
2022-08-27T01:14:57.562Z,13.27
2022-08-27T01:17:39.791Z,14.48
2022-08-27T01:20:32.491Z,12.90
2022-08-27T01:23:52.585Z,14.52
2022-08-27T01:26:41.854Z,14.15
2022-08-27T01:29:24.545Z,14.95
2022-08-27T01:32:13.003Z,15.52
2022-08-27T01:35:02.566Z,14.27
2022-08-27T01:37:57.208Z,14.25
2022-08-27T01:40:46.721Z,15.77
2022-08-27T01:43:36.944Z,15.82
2022-08-27T01:46:18.538Z,16.33
2022-08-27T01:49:07.594Z,15.20
2022-08-27T01:52:02.504Z,16.88
2022-08-27T01:54:51.469Z,16.67
2022-08-27T01:57:34.027Z,16.27
2022-08-27T02:00:31.621Z,15.65
2022-08-27T02:03:26.598Z,15.20
2022-08-27T02:06:18.085Z,15.25
2022-08-27T02:08:59.497Z,14.55
2022-08-27T02:11:48.770Z,14.55
2022-08-27T02:14:30.584Z,15.77
2022-08-27T02:17:18.866Z,14.77
2022-08-27T02:20:01.576Z,14.23
2022-08-27T02:22:51.242Z,14.20
2022-08-27T02:25:37.699Z,13.65
2022-08-27T02:28:25.892Z,12.43
2022-08-27T02:31:08.629Z,11.82
2022-08-27T02:33:58.038Z,12.38
2022-08-27T02:36:40.600Z,12.52
2022-08-27T02:39:30.531Z,14.05
2022-08-27T02:42:13.588Z,12.88
2022-08-27T02:45:01.740Z,12.32
2022-08-27T02:47:44.676Z,12.85
2022-08-27T02:50:41.428Z,12.73
2022-08-27T02:53:30.563Z,11.88
2022-08-27T02:56:15.049Z,12.05
2022-08-27T02:59:10.581Z,11.70
2022-08-27T03:02:01.709Z,12.07
2022-08-27T03:04:51.407Z,12.27
2022-08-27T03:07:33.571Z,12.68
2022-08-27T03:10:18.263Z,11.85
2022-08-27T03:13:01.592Z,11.80
2022-08-27T03:15:43.897Z,12.93
2022-08-27T03:18:32.484Z,12.55
2022-08-27T03:21:21.582Z,11.88
2022-08-27T03:24:11.628Z,12.15
2022-08-27T03:27:03.589Z,11.85
2022-08-27T03:29:51.767Z,11.63
2022-08-27T03:32:33.486Z,12.57
2022-08-27T03:35:16.625Z,11.35
2022-08-27T03:38:05.576Z,10.32
2022-08-27T03:40:54.848Z,8.95
2022-08-27T03:43:37.598Z,8.68
2022-08-27T03:46:31.353Z,9.32
2022-08-27T03:49:13.509Z,10.70
2022-08-27T03:52:09.451Z,8.43
2022-08-27T03:55:04.489Z,8.80
2022-08-27T03:57:59.439Z,8.45
2022-08-27T04:00:56.712Z,8.40
2022-08-27T04:03:39.013Z,9.05
2022-08-27T04:06:27.594Z,8.70
2022-08-27T04:09:16.513Z,7.65
2022-08-27T04:12:00.009Z,8.38
2022-08-27T04:14:48.635Z,7.75
2022-08-27T04:17:30.874Z,7.50
2022-08-27T04:20:35.096Z,8.60
2022-08-27T04:23:18.074Z,8.43
2022-08-27T04:26:06.593Z,8.68
2022-08-27T04:28:48.951Z,9.13
2022-08-27T04:31:37.514Z,9.10
2022-08-27T04:34:19.919Z,7.43
2022-08-27T04:37:08.488Z,6.50
2022-08-27T04:39:51.778Z,6.28
2022-08-27T04:42:40.482Z,6.28
2022-08-27T04:45:22.898Z,6.10
2022-08-27T04:48:11.716Z,6.45
2022-08-27T04:50:55.862Z,7.18
2022-08-27T04:53:44.587Z,7.05
2022-08-27T04:56:29.884Z,6.53
2022-08-27T04:59:26.510Z,6.10
2022-08-27T05:02:24.517Z,5.43
2022-08-27T05:05:16.067Z,6.47
2022-08-27T05:07:58.568Z,6.35
2022-08-27T05:10:47.881Z,5.82
2022-08-27T05:13:32.499Z,5.72
2022-08-27T05:16:24.695Z,5.55
2022-08-27T05:19:09.518Z,5.75
2022-08-27T05:22:00.472Z,7.85
2022-08-27T05:24:50.293Z,7.88
2022-08-27T05:27:38.796Z,8.30
2022-08-27T05:30:36.607Z,5.60
2022-08-27T05:33:19.958Z,6.32
2022-08-27T05:36:09.632Z,5.90
2022-08-27T05:38:51.916Z,5.55
2022-08-27T05:41:42.576Z,6.18
2022-08-27T05:44:47.572Z,6.40
2022-08-27T05:47:37.551Z,5.72
2022-08-27T05:50:33.615Z,5.47
2022-08-27T05:53:15.856Z,5.35
2022-08-27T05:56:04.556Z,5.55
2022-08-27T05:59:06.026Z,6.35
2022-08-27T06:02:06.713Z,7.32
2022-08-27T06:05:02.675Z,6.55
2022-08-27T06:07:44.693Z,6.80
2022-08-27T06:10:33.608Z,6.78
2022-08-27T06:13:22.481Z,8.02
2022-08-27T06:16:14.518Z,7.60
2022-08-27T06:19:05.298Z,7.53
2022-08-27T06:22:00.270Z,7.45
2022-08-27T06:24:52.001Z,6.45
2022-08-27T06:27:43.630Z,7.22
2022-08-27T06:30:26.222Z,8.15
2022-08-27T06:33:16.588Z,8.70
2022-08-27T06:36:10.848Z,9.77
2022-08-27T06:38:53.560Z,8.73
2022-08-27T06:41:36.635Z,9.60
2022-08-27T06:44:29.579Z,7.97
2022-08-27T06:47:11.939Z,6.63
2022-08-27T06:50:00.499Z,6.97
2022-08-27T06:52:51.668Z,8.60
2022-08-27T06:55:37.171Z,8.27
2022-08-27T06:58:27.568Z,7.32
2022-08-27T07:01:10.930Z,8.82
2022-08-27T07:04:06.681Z,8.90
2022-08-27T07:07:01.477Z,8.65
2022-08-27T07:09:50.583Z,8.65
2022-08-27T07:12:32.751Z,9.05
2022-08-27T07:15:22.143Z,7.90
2022-08-27T07:18:07.898Z,8.57
2022-08-27T07:21:02.467Z,9.00
2022-08-27T07:23:46.872Z,9.48
2022-08-27T07:26:36.573Z,9.63
2022-08-27T07:29:21.907Z,9.40
2022-08-27T07:32:10.554Z,11.65
2022-08-27T07:34:53.036Z,10.60
2022-08-27T07:37:42.571Z,9.98
2022-08-27T07:40:25.917Z,9.23
2022-08-27T07:43:35.616Z,9.13
2022-08-27T07:46:24.549Z,10.88
2022-08-27T07:49:13.598Z,12.98
2022-08-27T07:51:55.908Z,10.95
2022-08-27T07:54:44.561Z,11.43
2022-08-27T07:57:26.851Z,12.55
2022-08-27T08:00:20.510Z,12.45
2022-08-27T08:03:09.570Z,11.90
2022-08-27T08:05:58.475Z,10.98
2022-08-27T08:08:43.909Z,11.13
2022-08-27T08:11:32.557Z,12.50
2022-08-27T08:14:21.574Z,11.05
2022-08-27T08:17:05.632Z,11.90
2022-08-27T08:20:18.608Z,12.70
2022-08-27T08:23:09.754Z,12.10
2022-08-27T08:26:05.898Z,11.35
2022-08-27T08:28:59.579Z,10.15
2022-08-27T08:31:50.108Z,9.88
2022-08-27T08:34:39.452Z,10.27
2022-08-27T08:37:21.978Z,10.60
2022-08-27T08:40:10.523Z,11.20
2022-08-27T08:43:00.911Z,12.07
2022-08-27T08:45:51.521Z,12.00
2022-08-27T08:48:36.836Z,11.98
2022-08-27T08:51:49.468Z,12.18
2022-08-27T08:54:33.735Z,12.88
2022-08-27T08:57:44.484Z,11.77
2022-08-27T09:00:33.511Z,12.07
2022-08-27T09:03:24.221Z,13.48
2022-08-27T09:06:41.510Z,13.55
2022-08-27T09:09:59.854Z,14.23
2022-08-27T09:12:41.583Z,13.95
2022-08-27T09:15:30.354Z,14.27
2022-08-27T09:18:29.541Z,12.88
2022-08-27T09:21:13.698Z,12.68
2022-08-27T09:24:26.534Z,15.15
2022-08-27T09:27:14.484Z,14.68
2022-08-27T09:30:09.579Z,14.85
2022-08-27T09:32:58.010Z,12.95
2022-08-27T09:36:01.571Z,11.05
2022-08-27T09:39:02.918Z,10.02
2022-08-27T09:41:59.589Z,11.50
2022-08-27T09:44:55.643Z,11.70
2022-08-27T09:47:37.872Z,11.80
2022-08-27T09:50:30.479Z,12.10
2022-08-27T09:56:43.591Z,9.73
2022-08-27T09:59:38.603Z,8.93
2022-08-27T10:02:34.479Z,9.27
2022-08-27T10:05:30.636Z,9.63
2022-08-27T10:08:57.565Z,9.40
2022-08-27T10:11:56.750Z,8.32
2022-08-27T10:14:55.550Z,8.90
2022-08-27T10:18:57.605Z,9.63
2022-08-27T10:22:06.626Z,8.10
2022-08-27T10:25:10.196Z,8.02
2022-08-27T10:28:12.983Z,7.90
2022-08-27T10:31:00.861Z,6.93
2022-08-27T10:34:13.578Z,7.35
2022-08-27T10:37:04.314Z,7.03
2022-08-27T10:39:58.605Z,6.40
2022-08-27T10:42:57.567Z,6.68
2022-08-27T10:45:59.594Z,6.10
2022-08-27T10:48:59.491Z,6.22
2022-08-27T10:52:09.486Z,6.30
2022-08-27T10:55:06.928Z,6.35
2022-08-27T10:58:28.555Z,6.32
2022-08-27T11:01:29.138Z,4.97
2022-08-27T11:04:35.570Z,5.63
2022-08-27T11:07:39.481Z,5.65
2022-08-27T11:10:56.570Z,5.88
2022-08-27T11:13:54.527Z,4.78
2022-08-27T11:16:55.534Z,5.10
2022-08-27T11:20:08.305Z,4.20
2022-08-27T11:23:17.486Z,4.45
2022-08-27T11:26:11.898Z,4.47
2022-08-27T11:29:08.575Z,4.80
2022-08-27T11:32:38.543Z,4.40
2022-08-27T11:36:12.687Z,3.60
2022-08-27T11:39:18.599Z,4.15
2022-08-27T11:42:23.865Z,4.20
2022-08-27T11:45:20.566Z,3.88
2022-08-27T11:48:41.082Z,5.22
2022-08-27T11:52:00.467Z,4.90
2022-08-27T11:54:59.711Z,4.85
2022-08-27T11:57:46.479Z,4.05
2022-08-27T12:00:28.853Z,4.03
2022-08-27T12:03:19.761Z,4.32
2022-08-27T12:06:57.449Z,4.75
2022-08-27T12:10:06.500Z,4.13
2022-08-27T12:12:48.845Z,4.22
2022-08-27T12:16:14.541Z,4.63
2022-08-27T12:19:24.940Z,5.55
2022-08-27T12:22:20.566Z,4.72
2022-08-27T12:25:06.491Z,5.47
2022-08-27T12:28:07.675Z,5.40
2022-08-27T12:30:58.104Z,4.85
2022-08-27T12:33:54.634Z,5.53
2022-08-27T12:36:38.999Z,6.85
2022-08-27T12:39:36.601Z,6.63
2022-08-27T12:42:25.004Z,6.95
2022-08-27T12:45:13.650Z,5.18
2022-08-27T12:47:58.849Z,6.50
2022-08-27T12:53:45.931Z,4.90
2022-08-27T12:56:55.562Z,5.38
2022-08-27T12:59:53.600Z,5.47
2022-08-27T13:02:48.271Z,4.70
2022-08-27T13:05:39.673Z,5.53
2022-08-27T13:08:40.514Z,5.10
2022-08-27T13:11:33.580Z,5.78
2022-08-27T13:14:21.915Z,5.40
2022-08-27T13:17:22.640Z,5.45
2022-08-27T13:20:07.860Z,4.78
2022-08-27T13:22:57.759Z,4.43
2022-08-27T13:25:42.992Z,4.40
2022-08-27T13:28:34.573Z,5.45
2022-08-27T13:31:17.743Z,5.57
2022-08-27T13:34:08.532Z,5.18
2022-08-27T13:37:14.560Z,5.57
2022-08-27T13:39:58.384Z,5.88
2022-08-27T13:42:47.569Z,5.40
2022-08-27T13:45:36.569Z,5.72
2022-08-27T13:48:20.855Z,5.03
2022-08-27T13:51:14.560Z,6.43
2022-08-27T13:54:23.493Z,5.32
2022-08-27T13:57:18.540Z,4.55
2022-08-27T14:00:08.575Z,5.32
2022-08-27T14:03:00.015Z,5.68
2022-08-27T14:05:44.617Z,5.35
2022-08-27T14:08:49.413Z,6.00
2022-08-27T14:11:44.665Z,5.35
2022-08-27T14:14:27.734Z,5.43
2022-08-27T14:17:17.711Z,6.68
2022-08-27T14:20:06.204Z,5.95
2022-08-27T14:22:55.637Z,5.35
2022-08-27T14:25:38.059Z,5.95
2022-08-27T14:28:26.623Z,6.20
2022-08-27T14:31:22.750Z,5.78
2022-08-27T14:34:11.025Z,6.07
2022-08-27T14:36:54.905Z,6.43
2022-08-27T14:39:44.965Z,6.28
2022-08-27T14:42:29.548Z,6.45
2022-08-27T14:45:19.749Z,6.18
2022-08-27T14:48:02.693Z,6.25
2022-08-27T14:50:52.085Z,7.35
2022-08-27T14:53:34.553Z,6.60
2022-08-27T14:56:23.552Z,6.13
2022-08-27T14:59:06.195Z,6.10
2022-08-27T15:01:55.608Z,6.35
2022-08-27T15:04:53.588Z,6.68
2022-08-27T15:07:35.886Z,6.47
2022-08-27T15:10:25.699Z,6.47
2022-08-27T15:16:40.229Z,5.93
2022-08-27T15:19:29.649Z,5.68
2022-08-27T15:22:24.540Z,7.25
2022-08-27T15:25:13.619Z,9.20
2022-08-27T15:28:01.842Z,7.05
2022-08-27T15:30:45.557Z,6.30
2022-08-27T15:33:34.878Z,5.85
2022-08-27T15:36:16.703Z,6.35
2022-08-27T15:39:06.043Z,6.43
2022-08-27T15:42:05.884Z,7.88
2022-08-27T15:44:52.211Z,6.05
2022-08-27T15:47:41.714Z,6.13
2022-08-27T15:50:30.643Z,7.03
2022-08-27T15:53:16.183Z,7.22
2022-08-27T15:56:05.618Z,7.80
2022-08-27T15:58:47.997Z,6.55
2022-08-27T16:01:43.600Z,6.38
2022-08-27T16:04:25.971Z,6.88
2022-08-27T16:07:14.555Z,6.65
2022-08-27T16:10:00.192Z,6.57
2022-08-27T16:12:49.605Z,7.85
2022-08-27T16:15:48.629Z,6.50
2022-08-27T16:18:42.628Z,6.45
2022-08-27T16:21:49.056Z,7.28
2022-08-27T16:24:47.540Z,7.18
2022-08-27T16:27:36.629Z,5.15
2022-08-27T16:30:25.180Z,5.88
2022-08-27T16:33:17.621Z,7.07
2022-08-27T16:35:59.898Z,7.25
2022-08-27T16:38:48.484Z,7.97
2022-08-27T16:41:37.656Z,6.63
2022-08-27T16:47:24.656Z,6.40
2022-08-27T16:50:26.337Z,7.20
2022-08-27T16:53:23.422Z,7.25
2022-08-27T16:56:05.872Z,7.55
2022-08-27T16:58:57.503Z,8.13
2022-08-27T17:01:46.486Z,6.85
2022-08-27T17:04:41.924Z,6.75
2022-08-27T17:07:25.909Z,6.72
2022-08-27T17:10:14.498Z,7.03
2022-08-27T17:12:57.450Z,6.50
2022-08-27T17:15:53.018Z,6.05
2022-08-27T17:18:48.444Z,6.82
2022-08-27T17:21:45.754Z,6.45
2022-08-27T17:24:34.025Z,6.57
2022-08-27T17:27:15.496Z,6.85
2022-08-27T17:30:03.711Z,6.85
2022-08-27T17:32:47.469Z,7.55
2022-08-27T17:35:42.430Z,6.65
2022-08-27T17:38:31.409Z,7.80
2022-08-27T17:41:29.625Z,6.43
2022-08-27T17:44:24.526Z,6.93
2022-08-27T17:47:11.366Z,7.50
2022-08-27T17:50:01.426Z,6.10
2022-08-27T17:52:46.907Z,7.75
2022-08-27T17:55:35.529Z,7.18
2022-08-27T17:58:17.905Z,7.38
2022-08-27T18:01:07.609Z,8.68
2022-08-27T18:03:53.827Z,6.95
2022-08-27T18:06:42.507Z,7.68
2022-08-27T18:09:24.777Z,6.65
2022-08-27T18:12:13.473Z,6.93
2022-08-27T18:15:06.885Z,7.15
2022-08-27T18:17:56.539Z,8.13
2022-08-27T18:20:52.500Z,7.03
2022-08-27T18:23:43.795Z,7.47
2022-08-27T18:26:28.528Z,7.95
2022-08-27T18:29:24.529Z,8.40
2022-08-27T18:32:07.911Z,7.00
2022-08-27T18:34:56.513Z,7.72
2022-08-27T18:37:38.829Z,7.57
2022-08-27T18:40:28.570Z,7.93
2022-08-27T18:43:35.395Z,8.48
2022-08-27T18:46:18.038Z,7.70
2022-08-27T18:49:06.503Z,7.90
2022-08-27T18:51:52.984Z,7.93
2022-08-27T18:54:41.585Z,8.40
2022-08-27T18:57:26.845Z,8.20
2022-08-27T19:00:18.503Z,9.05
2022-08-27T19:03:02.742Z,8.35
2022-08-27T19:05:51.767Z,9.20
2022-08-27T19:08:37.953Z,8.07
2022-08-27T19:11:26.503Z,7.60
2022-08-27T19:14:08.870Z,8.48
2022-08-27T19:17:03.503Z,8.20
2022-08-27T19:19:58.502Z,8.05
2022-08-27T19:22:46.800Z,7.53
2022-08-27T19:25:29.499Z,8.05
2022-08-27T19:28:24.811Z,7.43
2022-08-27T19:31:14.584Z,8.73
2022-08-27T19:34:06.429Z,8.15
2022-08-27T19:36:59.786Z,7.40
2022-08-27T19:39:48.515Z,9.40
2022-08-27T19:42:31.532Z,7.72
2022-08-27T19:45:24.262Z,7.28
2022-08-27T19:48:07.846Z,6.93
2022-08-27T19:50:56.506Z,8.40
2022-08-27T19:53:39.295Z,8.13
2022-08-27T19:56:28.433Z,7.03
2022-08-27T19:59:20.610Z,8.10
2022-08-27T20:02:11.507Z,7.50
2022-08-27T20:05:16.250Z,7.65
2022-08-27T20:08:02.506Z,7.30
2022-08-27T20:10:44.782Z,7.03
2022-08-27T20:13:34.619Z,8.15
2022-08-27T20:16:16.846Z,6.75
2022-08-27T20:19:09.505Z,7.88
2022-08-27T20:21:58.787Z,8.07
2022-08-27T20:24:41.488Z,7.93
2022-08-27T20:27:23.921Z,6.82
2022-08-27T20:30:12.438Z,8.07
2022-08-27T20:33:01.514Z,7.32
2022-08-27T20:35:50.431Z,8.30
2022-08-27T20:38:40.527Z,6.97
2022-08-27T20:41:22.857Z,7.78
2022-08-27T20:44:11.518Z,6.90
2022-08-27T20:46:53.809Z,7.15
2022-08-27T20:49:43.572Z,7.47
2022-08-27T20:52:25.773Z,6.82
2022-08-27T20:55:15.514Z,6.97
2022-08-27T20:58:16.039Z,8.10
2022-08-27T21:01:04.585Z,7.35
2022-08-27T21:03:46.683Z,7.97
2022-08-27T21:06:35.422Z,7.07
2022-08-27T21:09:24.425Z,7.28
2022-08-27T21:12:13.848Z,8.60
2022-08-27T21:15:05.520Z,7.68
2022-08-27T21:17:54.506Z,7.90
2022-08-27T21:20:44.476Z,7.07
2022-08-27T21:23:35.503Z,7.68
2022-08-27T21:26:21.193Z,8.40
2022-08-27T21:29:10.404Z,9.27
2022-08-27T21:31:59.481Z,8.77
2022-08-27T21:34:49.492Z,7.80
2022-08-27T21:37:31.798Z,7.93
2022-08-27T21:40:20.576Z,8.80
2022-08-27T21:43:10.411Z,8.15
2022-08-27T21:46:04.556Z,7.88
2022-08-27T21:48:46.790Z,8.13
2022-08-27T21:51:35.484Z,7.75
2022-08-27T21:54:26.176Z,9.00
2022-08-27T21:57:17.998Z,8.45
2022-08-27T21:59:59.439Z,8.43
2022-08-27T22:02:47.536Z,9.00
2022-08-27T22:05:37.383Z,8.93
2022-08-27T22:08:21.588Z,8.18
2022-08-27T22:11:12.451Z,7.55
2022-08-27T22:14:01.760Z,8.15
2022-08-27T22:16:43.479Z,8.13
2022-08-27T22:19:25.568Z,7.20
2022-08-27T22:22:20.472Z,8.32
2022-08-27T22:25:09.550Z,8.38
2022-08-27T22:27:52.528Z,7.38
2022-08-27T22:30:41.707Z,7.90
2022-08-27T22:33:25.554Z,7.95
2022-08-27T22:36:07.585Z,8.07
2022-08-27T22:38:59.855Z,8.25
2022-08-27T22:41:52.477Z,7.63
2022-08-27T22:44:34.815Z,8.30
2022-08-27T22:47:23.387Z,7.30
2022-08-27T22:50:05.781Z,7.50
2022-08-27T22:52:55.376Z,8.55
2022-08-27T22:55:37.775Z,7.70
2022-08-27T22:58:26.354Z,8.63
2022-08-27T23:01:08.767Z,7.78
2022-08-27T23:03:57.490Z,7.72
2022-08-27T23:06:40.771Z,8.32
2022-08-27T23:09:29.458Z,8.23
2022-08-27T23:12:11.823Z,8.20
2022-08-27T23:15:00.390Z,8.40
2022-08-27T23:17:42.787Z,7.85
2022-08-27T23:20:32.463Z,8.52
2022-08-27T23:23:29.896Z,8.85
2022-08-27T23:26:37.464Z,7.55
2022-08-27T23:29:20.061Z,7.85
2022-08-27T23:32:08.466Z,8.20
2022-08-27T23:34:57.381Z,8.65
2022-08-27T23:37:46.472Z,8.75
2022-08-27T23:40:36.474Z,8.73
2022-08-27T23:43:32.511Z,8.10
2022-08-27T23:46:14.543Z,8.02
2022-08-27T23:49:03.517Z,8.23
2022-08-27T23:51:45.651Z,9.00
2022-08-27T23:54:34.515Z,10.15
2022-08-27T23:57:23.640Z,8.15
